sensor_id;sensor_type;location;lat;lon;timestamp;P1;durP1;ratioP1;P2;durP2;ratioP2
71464;SDS011;59274;49.874;9.154;2024-03-08T00:01:53;20.08;;;9.60;;
71464;SDS011;59274;49.874;9.154;2024-03-08T00:04:18;20.57;;;9.30;;
71464;SDS011;59274;49.874;9.154;2024-03-08T00:06:44;20.60;;;10.23;;
71464;SDS011;59274;49.874;9.154;2024-03-08T00:09:11;18.30;;;8.88;;
71464;SDS011;59274;49.874;9.154;2024-03-08T00:11:37;18.98;;;9.95;;
71464;SDS011;59274;49.874;9.154;2024-03-08T00:14:04;20.27;;;9.20;;
71464;SDS011;59274;49.874;9.154;2024-03-08T00:16:32;20.25;;;9.75;;
71464;SDS011;59274;49.874;9.154;2024-03-08T00:18:59;19.70;;;9.17;;
71464;SDS011;59274;49.874;9.154;2024-03-08T00:21:25;20.02;;;10.05;;
71464;SDS011;59274;49.874;9.154;2024-03-08T00:23:52;20.75;;;9.40;;
71464;SDS011;59274;49.874;9.154;2024-03-08T00:26:20;20.92;;;9.80;;
71464;SDS011;59274;49.874;9.154;2024-03-08T00:28:47;20.10;;;9.45;;
71464;SDS011;59274;49.874;9.154;2024-03-08T00:31:14;19.90;;;9.23;;
71464;SDS011;59274;49.874;9.154;2024-03-08T00:33:42;23.45;;;8.73;;
71464;SDS011;59274;49.874;9.154;2024-03-08T00:36:08;19.48;;;8.93;;
71464;SDS011;59274;49.874;9.154;2024-03-08T00:38:34;20.40;;;9.75;;
71464;SDS011;59274;49.874;9.154;2024-03-08T00:40:59;21.60;;;9.63;;
71464;SDS011;59274;49.874;9.154;2024-03-08T00:43:25;20.92;;;9.00;;
71464;SDS011;59274;49.874;9.154;2024-03-08T00:45:51;22.03;;;8.87;;
71464;SDS011;59274;49.874;9.154;2024-03-08T00:48:17;20.50;;;10.05;;
71464;SDS011;59274;49.874;9.154;2024-03-08T00:50:43;20.15;;;9.07;;
71464;SDS011;59274;49.874;9.154;2024-03-08T00:53:11;18.67;;;8.77;;
71464;SDS011;59274;49.874;9.154;2024-03-08T00:55:39;22.90;;;9.02;;
71464;SDS011;59274;49.874;9.154;2024-03-08T00:58:05;20.38;;;9.65;;
71464;SDS011;59274;49.874;9.154;2024-03-08T01:00:31;19.20;;;8.83;;
71464;SDS011;59274;49.874;9.154;2024-03-08T01:02:56;20.90;;;9.13;;
71464;SDS011;59274;49.874;9.154;2024-03-08T01:05:22;19.83;;;9.77;;
71464;SDS011;59274;49.874;9.154;2024-03-08T01:07:50;24.48;;;10.27;;
71464;SDS011;59274;49.874;9.154;2024-03-08T01:10:16;20.93;;;9.23;;
71464;SDS011;59274;49.874;9.154;2024-03-08T01:12:42;21.05;;;9.75;;
71464;SDS011;59274;49.874;9.154;2024-03-08T01:15:09;21.23;;;9.55;;
71464;SDS011;59274;49.874;9.154;2024-03-08T01:17:35;21.37;;;9.50;;
71464;SDS011;59274;49.874;9.154;2024-03-08T01:20:02;19.98;;;9.63;;
71464;SDS011;59274;49.874;9.154;2024-03-08T01:22:31;19.90;;;9.73;;
71464;SDS011;59274;49.874;9.154;2024-03-08T01:24:58;20.73;;;9.35;;
71464;SDS011;59274;49.874;9.154;2024-03-08T01:27:24;19.95;;;8.70;;
71464;SDS011;59274;49.874;9.154;2024-03-08T01:29:50;19.33;;;8.93;;
71464;SDS011;59274;49.874;9.154;2024-03-08T01:32:16;21.58;;;9.55;;
71464;SDS011;59274;49.874;9.154;2024-03-08T01:34:42;22.27;;;9.88;;
71464;SDS011;59274;49.874;9.154;2024-03-08T01:37:10;20.63;;;9.30;;
71464;SDS011;59274;49.874;9.154;2024-03-08T01:39:36;20.42;;;9.75;;
71464;SDS011;59274;49.874;9.154;2024-03-08T01:42:04;20.33;;;9.47;;
71464;SDS011;59274;49.874;9.154;2024-03-08T01:44:30;22.73;;;9.45;;
71464;SDS011;59274;49.874;9.154;2024-03-08T01:46:57;20.50;;;9.27;;
71464;SDS011;59274;49.874;9.154;2024-03-08T01:49:23;19.53;;;9.73;;
71464;SDS011;59274;49.874;9.154;2024-03-08T01:51:51;20.45;;;8.90;;
71464;SDS011;59274;49.874;9.154;2024-03-08T01:54:17;17.20;;;8.30;;
71464;SDS011;59274;49.874;9.154;2024-03-08T01:56:45;21.92;;;9.10;;
71464;SDS011;59274;49.874;9.154;2024-03-08T01:59:11;22.50;;;9.57;;
71464;SDS011;59274;49.874;9.154;2024-03-08T02:01:41;21.33;;;9.27;;
71464;SDS011;59274;49.874;9.154;2024-03-08T02:04:06;20.77;;;9.93;;
71464;SDS011;59274;49.874;9.154;2024-03-08T02:06:32;20.63;;;9.38;;
71464;SDS011;59274;49.874;9.154;2024-03-08T02:08:58;22.42;;;9.35;;
71464;SDS011;59274;49.874;9.154;2024-03-08T02:11:24;20.90;;;9.98;;
71464;SDS011;59274;49.874;9.154;2024-03-08T02:13:54;21.60;;;10.40;;
71464;SDS011;59274;49.874;9.154;2024-03-08T02:16:20;21.27;;;9.27;;
71464;SDS011;59274;49.874;9.154;2024-03-08T02:18:48;22.98;;;10.25;;
71464;SDS011;59274;49.874;9.154;2024-03-08T02:21:13;21.85;;;10.00;;
71464;SDS011;59274;49.874;9.154;2024-03-08T02:23:46;23.38;;;9.85;;
71464;SDS011;59274;49.874;9.154;2024-03-08T02:26:12;20.03;;;9.57;;
71464;SDS011;59274;49.874;9.154;2024-03-08T02:28:37;23.95;;;9.35;;
71464;SDS011;59274;49.874;9.154;2024-03-08T02:31:04;25.00;;;9.27;;
71464;SDS011;59274;49.874;9.154;2024-03-08T02:33:33;24.50;;;9.63;;
71464;SDS011;59274;49.874;9.154;2024-03-08T02:35:59;24.33;;;10.00;;
71464;SDS011;59274;49.874;9.154;2024-03-08T02:38:26;23.80;;;9.82;;
71464;SDS011;59274;49.874;9.154;2024-03-08T02:40:52;21.00;;;9.52;;
71464;SDS011;59274;49.874;9.154;2024-03-08T02:43:19;23.08;;;9.73;;
71464;SDS011;59274;49.874;9.154;2024-03-08T02:45:47;25.73;;;9.67;;
71464;SDS011;59274;49.874;9.154;2024-03-08T02:48:14;24.08;;;9.55;;
71464;SDS011;59274;49.874;9.154;2024-03-08T02:50:41;22.02;;;10.32;;
71464;SDS011;59274;49.874;9.154;2024-03-08T02:53:10;23.15;;;9.90;;
71464;SDS011;59274;49.874;9.154;2024-03-08T02:55:37;25.33;;;10.80;;
71464;SDS011;59274;49.874;9.154;2024-03-08T02:58:04;21.33;;;10.13;;
71464;SDS011;59274;49.874;9.154;2024-03-08T03:00:30;20.25;;;9.27;;
71464;SDS011;59274;49.874;9.154;2024-03-08T03:02:57;21.63;;;9.82;;
71464;SDS011;59274;49.874;9.154;2024-03-08T03:05:24;19.93;;;9.03;;
71464;SDS011;59274;49.874;9.154;2024-03-08T03:07:51;27.27;;;10.70;;
71464;SDS011;59274;49.874;9.154;2024-03-08T03:10:17;24.00;;;10.75;;
71464;SDS011;59274;49.874;9.154;2024-03-08T03:12:44;21.15;;;9.52;;
71464;SDS011;59274;49.874;9.154;2024-03-08T03:15:11;25.57;;;10.70;;
71464;SDS011;59274;49.874;9.154;2024-03-08T03:17:38;22.73;;;10.07;;
71464;SDS011;59274;49.874;9.154;2024-03-08T03:20:07;24.23;;;10.27;;
71464;SDS011;59274;49.874;9.154;2024-03-08T03:22:39;22.45;;;9.43;;
71464;SDS011;59274;49.874;9.154;2024-03-08T03:25:12;24.20;;;9.98;;
71464;SDS011;59274;49.874;9.154;2024-03-08T03:27:39;25.17;;;10.60;;
71464;SDS011;59274;49.874;9.154;2024-03-08T03:30:07;22.95;;;9.90;;
71464;SDS011;59274;49.874;9.154;2024-03-08T03:32:49;21.80;;;10.05;;
71464;SDS011;59274;49.874;9.154;2024-03-08T03:35:19;29.08;;;11.18;;
71464;SDS011;59274;49.874;9.154;2024-03-08T03:37:48;25.42;;;10.57;;
71464;SDS011;59274;49.874;9.154;2024-03-08T03:40:32;24.47;;;10.93;;
71464;SDS011;59274;49.874;9.154;2024-03-08T03:42:59;22.83;;;10.73;;
71464;SDS011;59274;49.874;9.154;2024-03-08T03:45:25;25.67;;;11.25;;
71464;SDS011;59274;49.874;9.154;2024-03-08T03:47:51;23.77;;;10.93;;
71464;SDS011;59274;49.874;9.154;2024-03-08T03:50:17;23.10;;;10.53;;
71464;SDS011;59274;49.874;9.154;2024-03-08T03:52:45;23.60;;;10.77;;
71464;SDS011;59274;49.874;9.154;2024-03-08T03:55:14;22.45;;;10.55;;
71464;SDS011;59274;49.874;9.154;2024-03-08T03:57:40;23.77;;;10.65;;
71464;SDS011;59274;49.874;9.154;2024-03-08T04:00:06;25.88;;;10.90;;
71464;SDS011;59274;49.874;9.154;2024-03-08T04:02:38;25.02;;;10.85;;
71464;SDS011;59274;49.874;9.154;2024-03-08T04:05:05;22.02;;;9.73;;
71464;SDS011;59274;49.874;9.154;2024-03-08T04:07:32;24.95;;;10.02;;
71464;SDS011;59274;49.874;9.154;2024-03-08T04:09:58;24.17;;;11.27;;
71464;SDS011;59274;49.874;9.154;2024-03-08T04:12:24;27.23;;;10.87;;
71464;SDS011;59274;49.874;9.154;2024-03-08T04:14:50;22.83;;;10.20;;
71464;SDS011;59274;49.874;9.154;2024-03-08T04:17:16;26.53;;;10.70;;
71464;SDS011;59274;49.874;9.154;2024-03-08T04:19:43;26.10;;;10.82;;
71464;SDS011;59274;49.874;9.154;2024-03-08T04:22:09;24.08;;;10.95;;
71464;SDS011;59274;49.874;9.154;2024-03-08T04:24:35;23.40;;;11.20;;
71464;SDS011;59274;49.874;9.154;2024-03-08T04:27:00;23.73;;;11.02;;
71464;SDS011;59274;49.874;9.154;2024-03-08T04:29:26;25.80;;;11.13;;
71464;SDS011;59274;49.874;9.154;2024-03-08T04:31:52;24.08;;;10.80;;
71464;SDS011;59274;49.874;9.154;2024-03-08T04:34:21;26.92;;;11.18;;
71464;SDS011;59274;49.874;9.154;2024-03-08T04:36:50;25.27;;;11.25;;
71464;SDS011;59274;49.874;9.154;2024-03-08T04:39:15;28.38;;;10.88;;
71464;SDS011;59274;49.874;9.154;2024-03-08T04:41:44;27.13;;;10.60;;
71464;SDS011;59274;49.874;9.154;2024-03-08T04:44:11;24.75;;;10.63;;
71464;SDS011;59274;49.874;9.154;2024-03-08T04:46:38;26.02;;;11.60;;
71464;SDS011;59274;49.874;9.154;2024-03-08T04:49:03;22.33;;;10.67;;
71464;SDS011;59274;49.874;9.154;2024-03-08T04:51:29;22.48;;;10.38;;
71464;SDS011;59274;49.874;9.154;2024-03-08T04:53:55;26.10;;;9.98;;
71464;SDS011;59274;49.874;9.154;2024-03-08T04:56:22;26.65;;;11.27;;
71464;SDS011;59274;49.874;9.154;2024-03-08T04:58:48;24.52;;;10.77;;
71464;SDS011;59274;49.874;9.154;2024-03-08T05:01:14;26.75;;;11.68;;
71464;SDS011;59274;49.874;9.154;2024-03-08T05:03:40;23.60;;;10.27;;
71464;SDS011;59274;49.874;9.154;2024-03-08T05:06:06;23.38;;;11.07;;
71464;SDS011;59274;49.874;9.154;2024-03-08T05:08:32;25.25;;;10.00;;
71464;SDS011;59274;49.874;9.154;2024-03-08T05:10:58;24.55;;;11.57;;
71464;SDS011;59274;49.874;9.154;2024-03-08T05:13:24;28.35;;;12.48;;
71464;SDS011;59274;49.874;9.154;2024-03-08T05:15:49;24.23;;;10.33;;
71464;SDS011;59274;49.874;9.154;2024-03-08T05:18:18;27.23;;;12.18;;
71464;SDS011;59274;49.874;9.154;2024-03-08T05:20:44;27.50;;;11.35;;
71464;SDS011;59274;49.874;9.154;2024-03-08T05:23:10;25.38;;;11.65;;
71464;SDS011;59274;49.874;9.154;2024-03-08T05:25:35;28.23;;;10.37;;
71464;SDS011;59274;49.874;9.154;2024-03-08T05:28:01;26.20;;;11.53;;
71464;SDS011;59274;49.874;9.154;2024-03-08T05:30:29;26.70;;;11.05;;
71464;SDS011;59274;49.874;9.154;2024-03-08T05:32:55;26.67;;;12.05;;
71464;SDS011;59274;49.874;9.154;2024-03-08T05:35:22;26.40;;;10.97;;
71464;SDS011;59274;49.874;9.154;2024-03-08T05:37:47;28.88;;;11.30;;
71464;SDS011;59274;49.874;9.154;2024-03-08T05:40:13;32.20;;;11.77;;
71464;SDS011;59274;49.874;9.154;2024-03-08T05:42:39;28.08;;;12.25;;
71464;SDS011;59274;49.874;9.154;2024-03-08T05:45:04;28.50;;;12.23;;
71464;SDS011;59274;49.874;9.154;2024-03-08T05:47:35;25.65;;;12.35;;
71464;SDS011;59274;49.874;9.154;2024-03-08T05:50:00;29.67;;;12.57;;
71464;SDS011;59274;49.874;9.154;2024-03-08T05:52:27;26.67;;;12.15;;
71464;SDS011;59274;49.874;9.154;2024-03-08T05:54:52;27.05;;;12.50;;
71464;SDS011;59274;49.874;9.154;2024-03-08T05:57:18;26.40;;;11.87;;
71464;SDS011;59274;49.874;9.154;2024-03-08T05:59:44;28.65;;;13.15;;
71464;SDS011;59274;49.874;9.154;2024-03-08T06:02:10;25.97;;;11.73;;
71464;SDS011;59274;49.874;9.154;2024-03-08T06:04:35;25.48;;;11.80;;
71464;SDS011;59274;49.874;9.154;2024-03-08T06:07:01;25.93;;;12.37;;
71464;SDS011;59274;49.874;9.154;2024-03-08T06:09:28;27.42;;;12.32;;
71464;SDS011;59274;49.874;9.154;2024-03-08T06:11:55;28.52;;;12.95;;
71464;SDS011;59274;49.874;9.154;2024-03-08T06:14:22;23.63;;;11.02;;
71464;SDS011;59274;49.874;9.154;2024-03-08T06:16:48;25.13;;;11.27;;
71464;SDS011;59274;49.874;9.154;2024-03-08T06:19:18;24.48;;;11.38;;
71464;SDS011;59274;49.874;9.154;2024-03-08T06:21:44;24.83;;;11.02;;
71464;SDS011;59274;49.874;9.154;2024-03-08T06:24:09;25.50;;;11.73;;
71464;SDS011;59274;49.874;9.154;2024-03-08T06:26:35;23.85;;;11.48;;
71464;SDS011;59274;49.874;9.154;2024-03-08T06:29:03;25.15;;;11.55;;
71464;SDS011;59274;49.874;9.154;2024-03-08T06:31:32;27.52;;;11.20;;
71464;SDS011;59274;49.874;9.154;2024-03-08T06:33:58;30.87;;;12.20;;
71464;SDS011;59274;49.874;9.154;2024-03-08T06:36:25;22.15;;;11.07;;
71464;SDS011;59274;49.874;9.154;2024-03-08T06:38:50;27.52;;;11.77;;
71464;SDS011;59274;49.874;9.154;2024-03-08T06:41:16;26.13;;;12.53;;
71464;SDS011;59274;49.874;9.154;2024-03-08T06:43:45;24.25;;;11.43;;
71464;SDS011;59274;49.874;9.154;2024-03-08T06:46:14;26.73;;;11.50;;
71464;SDS011;59274;49.874;9.154;2024-03-08T06:48:40;29.50;;;11.85;;
71464;SDS011;59274;49.874;9.154;2024-03-08T06:51:06;29.05;;;12.35;;
71464;SDS011;59274;49.874;9.154;2024-03-08T06:53:32;23.58;;;11.77;;
71464;SDS011;59274;49.874;9.154;2024-03-08T06:56:00;28.37;;;11.73;;
71464;SDS011;59274;49.874;9.154;2024-03-08T06:58:27;25.52;;;11.10;;
71464;SDS011;59274;49.874;9.154;2024-03-08T07:00:53;23.98;;;11.80;;
71464;SDS011;59274;49.874;9.154;2024-03-08T07:03:19;25.17;;;11.50;;
71464;SDS011;59274;49.874;9.154;2024-03-08T07:05:44;26.95;;;11.93;;
71464;SDS011;59274;49.874;9.154;2024-03-08T07:08:10;26.95;;;11.40;;
71464;SDS011;59274;49.874;9.154;2024-03-08T07:10:39;20.47;;;10.37;;
71464;SDS011;59274;49.874;9.154;2024-03-08T07:13:07;27.75;;;12.18;;
71464;SDS011;59274;49.874;9.154;2024-03-08T07:15:33;26.13;;;11.82;;
71464;SDS011;59274;49.874;9.154;2024-03-08T07:17:59;26.55;;;12.43;;
71464;SDS011;59274;49.874;9.154;2024-03-08T07:20:27;24.53;;;11.87;;
71464;SDS011;59274;49.874;9.154;2024-03-08T07:22:54;28.02;;;11.85;;
71464;SDS011;59274;49.874;9.154;2024-03-08T07:25:19;23.27;;;10.70;;
71464;SDS011;59274;49.874;9.154;2024-03-08T07:27:54;25.92;;;10.85;;
71464;SDS011;59274;49.874;9.154;2024-03-08T07:30:23;24.80;;;11.40;;
71464;SDS011;59274;49.874;9.154;2024-03-08T07:33:08;24.67;;;11.00;;
71464;SDS011;59274;49.874;9.154;2024-03-08T07:35:37;26.50;;;11.75;;
71464;SDS011;59274;49.874;9.154;2024-03-08T07:38:11;22.90;;;11.88;;
71464;SDS011;59274;49.874;9.154;2024-03-08T07:40:39;22.95;;;10.65;;
71464;SDS011;59274;49.874;9.154;2024-03-08T07:43:09;23.20;;;11.60;;
71464;SDS011;59274;49.874;9.154;2024-03-08T07:45:36;23.67;;;10.75;;
71464;SDS011;59274;49.874;9.154;2024-03-08T07:48:03;21.88;;;10.85;;
71464;SDS011;59274;49.874;9.154;2024-03-08T07:50:37;24.42;;;10.63;;
71464;SDS011;59274;49.874;9.154;2024-03-08T07:53:04;25.08;;;11.30;;
71464;SDS011;59274;49.874;9.154;2024-03-08T07:55:34;23.73;;;10.27;;
71464;SDS011;59274;49.874;9.154;2024-03-08T07:58:00;21.27;;;10.32;;
71464;SDS011;59274;49.874;9.154;2024-03-08T08:00:26;23.55;;;10.77;;
71464;SDS011;59274;49.874;9.154;2024-03-08T08:02:53;24.30;;;11.05;;
71464;SDS011;59274;49.874;9.154;2024-03-08T08:05:19;25.92;;;11.23;;
71464;SDS011;59274;49.874;9.154;2024-03-08T08:07:47;25.17;;;11.27;;
71464;SDS011;59274;49.874;9.154;2024-03-08T08:10:13;24.30;;;11.65;;
71464;SDS011;59274;49.874;9.154;2024-03-08T08:12:50;20.17;;;10.20;;
71464;SDS011;59274;49.874;9.154;2024-03-08T08:15:19;20.95;;;10.50;;
71464;SDS011;59274;49.874;9.154;2024-03-08T08:17:45;21.07;;;9.83;;
71464;SDS011;59274;49.874;9.154;2024-03-08T08:20:12;20.77;;;10.38;;
71464;SDS011;59274;49.874;9.154;2024-03-08T08:22:38;20.83;;;10.20;;
71464;SDS011;59274;49.874;9.154;2024-03-08T08:25:10;21.75;;;10.32;;
71464;SDS011;59274;49.874;9.154;2024-03-08T08:27:45;23.20;;;9.70;;
71464;SDS011;59274;49.874;9.154;2024-03-08T08:30:12;21.23;;;10.13;;
71464;SDS011;59274;49.874;9.154;2024-03-08T08:32:43;22.08;;;10.15;;
71464;SDS011;59274;49.874;9.154;2024-03-08T08:35:09;22.03;;;10.23;;
71464;SDS011;59274;49.874;9.154;2024-03-08T08:37:40;22.20;;;10.70;;
71464;SDS011;59274;49.874;9.154;2024-03-08T08:40:06;21.75;;;10.63;;
71464;SDS011;59274;49.874;9.154;2024-03-08T08:42:39;21.40;;;10.88;;
71464;SDS011;59274;49.874;9.154;2024-03-08T08:45:06;22.55;;;9.85;;
71464;SDS011;59274;49.874;9.154;2024-03-08T08:47:36;20.83;;;10.07;;
71464;SDS011;59274;49.874;9.154;2024-03-08T08:50:02;20.02;;;9.50;;
71464;SDS011;59274;49.874;9.154;2024-03-08T08:52:30;22.80;;;10.63;;
71464;SDS011;59274;49.874;9.154;2024-03-08T08:55:00;18.83;;;9.60;;
71464;SDS011;59274;49.874;9.154;2024-03-08T08:57:25;25.07;;;11.37;;
71464;SDS011;59274;49.874;9.154;2024-03-08T08:59:53;21.05;;;10.65;;
71464;SDS011;59274;49.874;9.154;2024-03-08T09:02:19;21.20;;;10.35;;
71464;SDS011;59274;49.874;9.154;2024-03-08T09:04:46;22.00;;;11.18;;
71464;SDS011;59274;49.874;9.154;2024-03-08T09:07:13;22.43;;;10.27;;
71464;SDS011;59274;49.874;9.154;2024-03-08T09:09:39;21.98;;;10.43;;
71464;SDS011;59274;49.874;9.154;2024-03-08T09:12:05;23.65;;;10.40;;
71464;SDS011;59274;49.874;9.154;2024-03-08T09:14:31;20.33;;;10.20;;
71464;SDS011;59274;49.874;9.154;2024-03-08T09:16:57;18.73;;;9.53;;
71464;SDS011;59274;49.874;9.154;2024-03-08T09:19:23;23.15;;;10.60;;
71464;SDS011;59274;49.874;9.154;2024-03-08T09:21:51;21.35;;;10.38;;
71464;SDS011;59274;49.874;9.154;2024-03-08T09:24:17;21.27;;;10.37;;
71464;SDS011;59274;49.874;9.154;2024-03-08T09:26:43;24.33;;;12.02;;
71464;SDS011;59274;49.874;9.154;2024-03-08T09:29:08;21.75;;;10.30;;
71464;SDS011;59274;49.874;9.154;2024-03-08T09:31:36;21.83;;;9.73;;
71464;SDS011;59274;49.874;9.154;2024-03-08T09:34:03;22.98;;;10.55;;
71464;SDS011;59274;49.874;9.154;2024-03-08T09:36:29;22.05;;;11.25;;
71464;SDS011;59274;49.874;9.154;2024-03-08T09:38:55;22.17;;;10.73;;
71464;SDS011;59274;49.874;9.154;2024-03-08T09:41:21;21.67;;;10.70;;
71464;SDS011;59274;49.874;9.154;2024-03-08T09:43:51;23.90;;;11.68;;
71464;SDS011;59274;49.874;9.154;2024-03-08T09:46:17;20.45;;;10.32;;
71464;SDS011;59274;49.874;9.154;2024-03-08T09:48:45;23.63;;;10.73;;
71464;SDS011;59274;49.874;9.154;2024-03-08T09:51:12;21.00;;;10.20;;
71464;SDS011;59274;49.874;9.154;2024-03-08T09:53:40;20.42;;;10.45;;
71464;SDS011;59274;49.874;9.154;2024-03-08T09:56:07;21.58;;;11.18;;
71464;SDS011;59274;49.874;9.154;2024-03-08T09:58:33;21.98;;;11.38;;
71464;SDS011;59274;49.874;9.154;2024-03-08T10:00:59;21.07;;;10.97;;
71464;SDS011;59274;49.874;9.154;2024-03-08T10:03:30;19.90;;;9.85;;
71464;SDS011;59274;49.874;9.154;2024-03-08T10:05:57;21.60;;;11.13;;
71464;SDS011;59274;49.874;9.154;2024-03-08T10:08:28;19.47;;;9.70;;
71464;SDS011;59274;49.874;9.154;2024-03-08T10:10:57;21.55;;;11.35;;
71464;SDS011;59274;49.874;9.154;2024-03-08T10:13:26;19.63;;;10.23;;
71464;SDS011;59274;49.874;9.154;2024-03-08T10:15:53;21.85;;;10.73;;
71464;SDS011;59274;49.874;9.154;2024-03-08T10:18:19;19.75;;;10.23;;
71464;SDS011;59274;49.874;9.154;2024-03-08T10:20:46;23.63;;;11.67;;
71464;SDS011;59274;49.874;9.154;2024-03-08T10:23:30;20.20;;;10.88;;
71464;SDS011;59274;49.874;9.154;2024-03-08T10:25:56;23.05;;;11.32;;
71464;SDS011;59274;49.874;9.154;2024-03-08T10:28:23;23.05;;;11.52;;
71464;SDS011;59274;49.874;9.154;2024-03-08T10:30:50;20.35;;;10.57;;
71464;SDS011;59274;49.874;9.154;2024-03-08T10:33:16;21.27;;;10.47;;
71464;SDS011;59274;49.874;9.154;2024-03-08T10:35:41;22.92;;;11.18;;
71464;SDS011;59274;49.874;9.154;2024-03-08T10:38:07;21.90;;;10.83;;
71464;SDS011;59274;49.874;9.154;2024-03-08T10:40:38;21.65;;;10.45;;
71464;SDS011;59274;49.874;9.154;2024-03-08T10:43:05;22.55;;;11.20;;
71464;SDS011;59274;49.874;9.154;2024-03-08T10:45:44;21.58;;;10.40;;
71464;SDS011;59274;49.874;9.154;2024-03-08T10:48:31;22.55;;;10.23;;
71464;SDS011;59274;49.874;9.154;2024-03-08T10:51:02;20.73;;;9.87;;
71464;SDS011;59274;49.874;9.154;2024-03-08T10:53:29;20.90;;;10.35;;
71464;SDS011;59274;49.874;9.154;2024-03-08T10:55:58;21.52;;;9.93;;
71464;SDS011;59274;49.874;9.154;2024-03-08T10:58:25;20.85;;;10.88;;
71464;SDS011;59274;49.874;9.154;2024-03-08T11:00:52;22.03;;;10.63;;
71464;SDS011;59274;49.874;9.154;2024-03-08T11:06:13;20.30;;;10.45;;
71464;SDS011;59274;49.874;9.154;2024-03-08T11:08:41;22.40;;;10.57;;
71464;SDS011;59274;49.874;9.154;2024-03-08T11:13:56;19.88;;;9.85;;
71464;SDS011;59274;49.874;9.154;2024-03-08T11:18:55;17.95;;;9.25;;
71464;SDS011;59274;49.874;9.154;2024-03-08T11:21:29;21.95;;;11.02;;
71464;SDS011;59274;49.874;9.154;2024-03-08T11:23:59;19.53;;;9.30;;
71464;SDS011;59274;49.874;9.154;2024-03-08T11:26:25;20.10;;;10.07;;
71464;SDS011;59274;49.874;9.154;2024-03-08T11:28:51;18.35;;;9.55;;
71464;SDS011;59274;49.874;9.154;2024-03-08T11:33:46;22.23;;;10.60;;
71464;SDS011;59274;49.874;9.154;2024-03-08T11:36:20;20.20;;;10.55;;
71464;SDS011;59274;49.874;9.154;2024-03-08T11:38:48;21.50;;;11.63;;
71464;SDS011;59274;49.874;9.154;2024-03-08T11:41:21;22.00;;;10.50;;
71464;SDS011;59274;49.874;9.154;2024-03-08T11:43:48;18.58;;;10.15;;
71464;SDS011;59274;49.874;9.154;2024-03-08T11:46:26;22.90;;;9.47;;
71464;SDS011;59274;49.874;9.154;2024-03-08T11:48:53;19.20;;;9.45;;
71464;SDS011;59274;49.874;9.154;2024-03-08T11:51:21;19.58;;;9.73;;
71464;SDS011;59274;49.874;9.154;2024-03-08T11:53:48;20.88;;;10.27;;
71464;SDS011;59274;49.874;9.154;2024-03-08T11:56:15;18.53;;;9.80;;
71464;SDS011;59274;49.874;9.154;2024-03-08T11:58:41;22.45;;;10.35;;
71464;SDS011;59274;49.874;9.154;2024-03-08T12:01:17;19.80;;;10.75;;
71464;SDS011;59274;49.874;9.154;2024-03-08T12:03:43;18.17;;;9.30;;
71464;SDS011;59274;49.874;9.154;2024-03-08T12:06:09;19.15;;;9.55;;
71464;SDS011;59274;49.874;9.154;2024-03-08T12:08:38;18.08;;;9.13;;
71464;SDS011;59274;49.874;9.154;2024-03-08T12:11:04;19.95;;;9.30;;
71464;SDS011;59274;49.874;9.154;2024-03-08T12:13:31;20.70;;;10.07;;
71464;SDS011;59274;49.874;9.154;2024-03-08T12:16:02;19.45;;;9.88;;
71464;SDS011;59274;49.874;9.154;2024-03-08T12:18:35;19.80;;;10.25;;
71464;SDS011;59274;49.874;9.154;2024-03-08T12:21:07;19.52;;;9.98;;
71464;SDS011;59274;49.874;9.154;2024-03-08T12:23:34;18.85;;;9.82;;
71464;SDS011;59274;49.874;9.154;2024-03-08T12:28:42;22.10;;;10.50;;
71464;SDS011;59274;49.874;9.154;2024-03-08T12:31:18;19.45;;;10.90;;
71464;SDS011;59274;49.874;9.154;2024-03-08T12:33:48;18.48;;;10.00;;
71464;SDS011;59274;49.874;9.154;2024-03-08T12:36:16;21.73;;;10.75;;
71464;SDS011;59274;49.874;9.154;2024-03-08T12:38:48;19.20;;;10.43;;
71464;SDS011;59274;49.874;9.154;2024-03-08T12:41:17;18.92;;;10.43;;
71464;SDS011;59274;49.874;9.154;2024-03-08T12:43:44;20.20;;;10.73;;
71464;SDS011;59274;49.874;9.154;2024-03-08T12:46:16;20.55;;;10.15;;
71464;SDS011;59274;49.874;9.154;2024-03-08T12:48:46;18.30;;;10.18;;
71464;SDS011;59274;49.874;9.154;2024-03-08T12:51:13;18.53;;;9.70;;
71464;SDS011;59274;49.874;9.154;2024-03-08T12:53:44;18.73;;;10.15;;
71464;SDS011;59274;49.874;9.154;2024-03-08T12:56:11;19.05;;;10.02;;
71464;SDS011;59274;49.874;9.154;2024-03-08T12:58:37;18.02;;;9.32;;
71464;SDS011;59274;49.874;9.154;2024-03-08T13:01:04;20.48;;;11.10;;
71464;SDS011;59274;49.874;9.154;2024-03-08T13:03:33;19.53;;;10.53;;
71464;SDS011;59274;49.874;9.154;2024-03-08T13:06:02;19.98;;;10.90;;
71464;SDS011;59274;49.874;9.154;2024-03-08T13:08:37;18.13;;;10.30;;
71464;SDS011;59274;49.874;9.154;2024-03-08T13:11:09;19.13;;;9.88;;
71464;SDS011;59274;49.874;9.154;2024-03-08T13:13:39;19.05;;;10.10;;
71464;SDS011;59274;49.874;9.154;2024-03-08T13:16:06;19.50;;;9.77;;
71464;SDS011;59274;49.874;9.154;2024-03-08T13:18:39;19.58;;;10.57;;
71464;SDS011;59274;49.874;9.154;2024-03-08T13:21:06;19.63;;;10.98;;
71464;SDS011;59274;49.874;9.154;2024-03-08T13:23:36;21.00;;;10.63;;
71464;SDS011;59274;49.874;9.154;2024-03-08T13:26:09;21.23;;;11.75;;
71464;SDS011;59274;49.874;9.154;2024-03-08T13:28:42;18.90;;;10.70;;
71464;SDS011;59274;49.874;9.154;2024-03-08T13:31:14;18.63;;;10.57;;
71464;SDS011;59274;49.874;9.154;2024-03-08T13:33:40;17.98;;;10.20;;
71464;SDS011;59274;49.874;9.154;2024-03-08T13:36:14;18.85;;;10.20;;
71464;SDS011;59274;49.874;9.154;2024-03-08T13:38:45;19.10;;;10.23;;
71464;SDS011;59274;49.874;9.154;2024-03-08T13:41:13;18.90;;;10.87;;
71464;SDS011;59274;49.874;9.154;2024-03-08T13:43:46;19.50;;;11.18;;
71464;SDS011;59274;49.874;9.154;2024-03-08T13:46:15;18.83;;;10.38;;
71464;SDS011;59274;49.874;9.154;2024-03-08T13:48:42;20.80;;;11.23;;
71464;SDS011;59274;49.874;9.154;2024-03-08T13:51:10;20.10;;;11.02;;
71464;SDS011;59274;49.874;9.154;2024-03-08T13:53:39;21.33;;;11.13;;
71464;SDS011;59274;49.874;9.154;2024-03-08T13:56:07;20.42;;;9.85;;
71464;SDS011;59274;49.874;9.154;2024-03-08T13:58:36;17.98;;;9.90;;
71464;SDS011;59274;49.874;9.154;2024-03-08T14:01:07;18.35;;;9.52;;
71464;SDS011;59274;49.874;9.154;2024-03-08T14:03:37;17.85;;;9.98;;
71464;SDS011;59274;49.874;9.154;2024-03-08T14:06:04;19.83;;;10.70;;
71464;SDS011;59274;49.874;9.154;2024-03-08T14:08:32;19.83;;;11.13;;
71464;SDS011;59274;49.874;9.154;2024-03-08T14:10:58;20.88;;;10.52;;
71464;SDS011;59274;49.874;9.154;2024-03-08T14:13:24;18.80;;;10.40;;
71464;SDS011;59274;49.874;9.154;2024-03-08T14:15:50;18.88;;;10.52;;
71464;SDS011;59274;49.874;9.154;2024-03-08T14:18:17;18.98;;;10.50;;
71464;SDS011;59274;49.874;9.154;2024-03-08T14:20:43;18.55;;;9.82;;
71464;SDS011;59274;49.874;9.154;2024-03-08T14:23:09;18.25;;;10.57;;
71464;SDS011;59274;49.874;9.154;2024-03-08T14:25:38;19.00;;;9.43;;
71464;SDS011;59274;49.874;9.154;2024-03-08T14:28:03;17.38;;;9.15;;
71464;SDS011;59274;49.874;9.154;2024-03-08T14:30:35;16.70;;;9.80;;
71464;SDS011;59274;49.874;9.154;2024-03-08T14:33:03;18.27;;;9.63;;
71464;SDS011;59274;49.874;9.154;2024-03-08T14:35:31;17.08;;;9.65;;
71464;SDS011;59274;49.874;9.154;2024-03-08T14:37:57;22.15;;;10.65;;
71464;SDS011;59274;49.874;9.154;2024-03-08T14:40:26;16.95;;;8.55;;
71464;SDS011;59274;49.874;9.154;2024-03-08T14:42:52;15.98;;;8.77;;